RSC289 BGSF-BGGH
Flight info
| Callsign | RSC289 |
|---|---|
| Flight time | N/A |
| Altitude | 20000 |
| Route | GILPO1B GILPO DCT BAKUG DCT GETDA |
| Aircraft | AT76/M-SDFGIRY/S |
Departure
| Time | N/A |
|---|---|
| Airport | Kangerlussuaq International Airport (BGSF) |
Arrival
| Time | 2026-04-29 15:41 |
|---|---|
| Airport | Nuuk International Airport (BGGH) |
| Time | Latitude | Longitude | Altitude | Speed | Heading |
|---|---|---|---|---|---|
| 2026-04-29 15:05 | 66.17755 | -51.12033 | 12155 ft | 276 kts | 186° |
| 2026-04-29 15:05 | 66.15839 | -51.12451 | 12143 ft | 276 kts | 186° |
| 2026-04-29 15:05 | 66.13929 | -51.12865 | 12146 ft | 276 kts | 186° |
| 2026-04-29 15:05 | 66.12021 | -51.13270 | 12145 ft | 275 kts | 186° |
| 2026-04-29 15:06 | 66.10114 | -51.13682 | 12147 ft | 275 kts | 186° |
| 2026-04-29 15:06 | 66.08211 | -51.14099 | 12154 ft | 275 kts | 186° |
| 2026-04-29 15:06 | 66.06302 | -51.14507 | 12145 ft | 275 kts | 186° |
| 2026-04-29 15:06 | 66.04393 | -51.14862 | 12148 ft | 274 kts | 185° |
| 2026-04-29 15:07 | 66.02488 | -51.15218 | 12141 ft | 274 kts | 186° |
| 2026-04-29 15:07 | 66.00586 | -51.15584 | 12142 ft | 274 kts | 186° |
| 2026-04-29 15:07 | 65.98684 | -51.15951 | 12145 ft | 274 kts | 186° |
| 2026-04-29 15:07 | 65.96783 | -51.16315 | 12136 ft | 274 kts | 186° |
| 2026-04-29 15:08 | 65.94906 | -51.16672 | 12133 ft | 274 kts | 186° |
| 2026-04-29 15:08 | 65.92981 | -51.17029 | 12137 ft | 274 kts | 186° |
| 2026-04-29 15:08 | 65.91079 | -51.17363 | 12135 ft | 274 kts | 185° |
| 2026-04-29 15:08 | 65.89176 | -51.17657 | 12142 ft | 274 kts | 185° |
| 2026-04-29 15:09 | 65.87301 | -51.17970 | 12137 ft | 273 kts | 186° |
| 2026-04-29 15:09 | 65.85402 | -51.18334 | 12131 ft | 273 kts | 186° |
| 2026-04-29 15:09 | 65.83506 | -51.18693 | 12134 ft | 273 kts | 186° |
| 2026-04-29 15:09 | 65.81609 | -51.19055 | 12138 ft | 274 kts | 186° |
| 2026-04-29 15:10 | 65.79703 | -51.19414 | 12139 ft | 275 kts | 186° |
| 2026-04-29 15:10 | 65.77795 | -51.19772 | 12134 ft | 275 kts | 186° |
| 2026-04-29 15:10 | 65.75882 | -51.20133 | 12125 ft | 275 kts | 186° |
| 2026-04-29 15:10 | 65.73972 | -51.20495 | 12130 ft | 275 kts | 186° |
| 2026-04-29 15:11 | 65.72061 | -51.20856 | 12129 ft | 276 kts | 186° |
| 2026-04-29 15:11 | 65.70150 | -51.21205 | 12123 ft | 275 kts | 186° |
| 2026-04-29 15:11 | 65.68241 | -51.21564 | 12123 ft | 275 kts | 186° |
| 2026-04-29 15:11 | 65.66355 | -51.21921 | 12120 ft | 275 kts | 186° |
| 2026-04-29 15:12 | 65.64452 | -51.22273 | 12121 ft | 274 kts | 186° |
| 2026-04-29 15:12 | 65.62550 | -51.22629 | 12129 ft | 275 kts | 186° |
| 2026-04-29 15:12 | 65.60616 | -51.22982 | 12124 ft | 275 kts | 186° |
| 2026-04-29 15:12 | 65.58732 | -51.23340 | 12122 ft | 275 kts | 186° |
| 2026-04-29 15:13 | 65.56822 | -51.23684 | 12120 ft | 275 kts | 186° |
| 2026-04-29 15:13 | 65.54912 | -51.24039 | 12122 ft | 275 kts | 186° |
| 2026-04-29 15:13 | 65.53007 | -51.24399 | 12120 ft | 275 kts | 186° |
| 2026-04-29 15:13 | 65.51095 | -51.24746 | 12116 ft | 275 kts | 186° |
| 2026-04-29 15:14 | 65.49188 | -51.25097 | 12111 ft | 275 kts | 186° |
| 2026-04-29 15:14 | 65.47278 | -51.25455 | 12116 ft | 275 kts | 186° |
| 2026-04-29 15:14 | 65.45367 | -51.25801 | 12103 ft | 274 kts | 186° |
| 2026-04-29 15:14 | 65.43463 | -51.26147 | 12108 ft | 274 kts | 186° |
| 2026-04-29 15:15 | 65.41562 | -51.26506 | 12097 ft | 273 kts | 186° |
| 2026-04-29 15:15 | 65.39665 | -51.26845 | 12110 ft | 273 kts | 186° |
| 2026-04-29 15:15 | 65.37772 | -51.27197 | 12115 ft | 273 kts | 186° |
| 2026-04-29 15:15 | 65.35879 | -51.27540 | 12112 ft | 273 kts | 186° |
| 2026-04-29 15:16 | 65.33979 | -51.27888 | 12105 ft | 274 kts | 186° |
| 2026-04-29 15:16 | 65.32078 | -51.28235 | 12101 ft | 274 kts | 186° |
| 2026-04-29 15:16 | 65.30177 | -51.28580 | 12091 ft | 274 kts | 186° |
| 2026-04-29 15:16 | 65.28281 | -51.28922 | 12103 ft | 273 kts | 186° |
| 2026-04-29 15:17 | 65.26408 | -51.29265 | 12097 ft | 274 kts | 186° |
| 2026-04-29 15:17 | 65.24509 | -51.29605 | 12094 ft | 273 kts | 186° |
| 2026-04-29 15:17 | 65.22613 | -51.29948 | 12097 ft | 273 kts | 186° |
| 2026-04-29 15:17 | 65.20711 | -51.30295 | 12091 ft | 274 kts | 186° |
| 2026-04-29 15:18 | 65.18809 | -51.30636 | 12091 ft | 274 kts | 186° |
| 2026-04-29 15:18 | 65.16910 | -51.30979 | 12089 ft | 274 kts | 186° |
| 2026-04-29 15:18 | 65.15005 | -51.31324 | 12086 ft | 274 kts | 186° |
| 2026-04-29 15:18 | 65.13106 | -51.31657 | 12079 ft | 274 kts | 186° |
| 2026-04-29 15:19 | 65.11210 | -51.32002 | 12084 ft | 273 kts | 186° |
| 2026-04-29 15:19 | 65.09317 | -51.32334 | 12083 ft | 273 kts | 186° |
| 2026-04-29 15:19 | 65.07425 | -51.32675 | 12076 ft | 273 kts | 186° |
| 2026-04-29 15:19 | 65.05531 | -51.33016 | 12085 ft | 273 kts | 186° |
| 2026-04-29 15:20 | 65.03654 | -51.33347 | 12081 ft | 274 kts | 186° |
| 2026-04-29 15:20 | 65.01753 | -51.33684 | 12072 ft | 274 kts | 186° |
| 2026-04-29 15:20 | 64.99851 | -51.34017 | 12071 ft | 274 kts | 186° |
| 2026-04-29 15:20 | 64.97943 | -51.34365 | 12070 ft | 275 kts | 186° |
| 2026-04-29 15:21 | 64.96035 | -51.34692 | 12060 ft | 274 kts | 186° |
| 2026-04-29 15:21 | 64.94122 | -51.35038 | 12076 ft | 275 kts | 186° |
| 2026-04-29 15:21 | 64.92218 | -51.35375 | 12073 ft | 275 kts | 186° |
| 2026-04-29 15:21 | 64.90337 | -51.35708 | 12071 ft | 275 kts | 186° |
| 2026-04-29 15:22 | 64.88424 | -51.36048 | 12066 ft | 275 kts | 186° |
| 2026-04-29 15:22 | 64.86614 | -51.37135 | 12049 ft | 267 kts | 206° |
| 2026-04-29 15:22 | 64.84933 | -51.39020 | 12066 ft | 268 kts | 207° |
| 2026-04-29 15:22 | 64.83219 | -51.40784 | 12064 ft | 269 kts | 204° |
| 2026-04-29 15:23 | 64.81459 | -51.42293 | 12065 ft | 270 kts | 200° |
| 2026-04-29 15:23 | 64.79673 | -51.43667 | 12065 ft | 270 kts | 200° |
| 2026-04-29 15:23 | 64.77885 | -51.45032 | 12062 ft | 270 kts | 200° |
| 2026-04-29 15:23 | 64.76095 | -51.46402 | 12058 ft | 270 kts | 200° |
| 2026-04-29 15:24 | 64.74313 | -51.47806 | 12060 ft | 270 kts | 200° |
| 2026-04-29 15:24 | 64.72532 | -51.49229 | 12062 ft | 271 kts | 201° |
| 2026-04-29 15:24 | 64.70749 | -51.50654 | 12050 ft | 271 kts | 201° |
| 2026-04-29 15:24 | 64.68965 | -51.52071 | 12055 ft | 270 kts | 201° |
| 2026-04-29 15:25 | 64.67187 | -51.53489 | 12056 ft | 270 kts | 201° |
| 2026-04-29 15:25 | 64.65432 | -51.54886 | 12053 ft | 269 kts | 201° |
| 2026-04-29 15:25 | 64.63637 | -51.56316 | 12057 ft | 269 kts | 201° |
| 2026-04-29 15:25 | 64.61886 | -51.57708 | 12054 ft | 269 kts | 201° |
| 2026-04-29 15:26 | 64.60114 | -51.59111 | 12054 ft | 269 kts | 201° |
| 2026-04-29 15:26 | 64.58343 | -51.60509 | 12057 ft | 269 kts | 201° |
| 2026-04-29 15:26 | 64.56571 | -51.61914 | 12056 ft | 269 kts | 201° |
| 2026-04-29 15:26 | 64.54800 | -51.63316 | 12053 ft | 269 kts | 201° |
| 2026-04-29 15:27 | 64.53030 | -51.64708 | 12052 ft | 268 kts | 201° |
| 2026-04-29 15:27 | 64.51262 | -51.66098 | 12050 ft | 269 kts | 201° |
| 2026-04-29 15:27 | 64.49492 | -51.67491 | 12050 ft | 268 kts | 201° |
| 2026-04-29 15:27 | 64.47725 | -51.68882 | 12043 ft | 268 kts | 201° |
| 2026-04-29 15:28 | 64.45955 | -51.70268 | 12043 ft | 268 kts | 201° |
| 2026-04-29 15:28 | 64.44783 | -51.71184 | 12040 ft | 268 kts | 201° |
| 2026-04-29 15:28 | 64.42416 | -51.73039 | 12035 ft | 268 kts | 201° |
| 2026-04-29 15:28 | 64.40646 | -51.74421 | 12035 ft | 268 kts | 201° |
| 2026-04-29 15:29 | 64.38878 | -51.75798 | 12034 ft | 268 kts | 201° |
| 2026-04-29 15:29 | 64.35309 | -51.78590 | 11533 ft | 274 kts | 201° |
| 2026-04-29 15:30 | 64.31879 | -51.81286 | 11494 ft | 249 kts | 201° |
| 2026-04-29 15:30 | 64.30274 | -51.82557 | 11166 ft | 245 kts | 201° |
| 2026-04-29 15:30 | 64.28676 | -51.83834 | 10844 ft | 241 kts | 201° |
| 2026-04-29 15:30 | 64.27096 | -51.85072 | 10529 ft | 238 kts | 200° |
| 2026-04-29 15:31 | 64.25534 | -51.86281 | 10219 ft | 236 kts | 200° |
| 2026-04-29 15:31 | 64.23987 | -51.87476 | 9911 ft | 234 kts | 200° |
| 2026-04-29 15:31 | 64.22442 | -51.88665 | 9581 ft | 235 kts | 200° |
| 2026-04-29 15:31 | 64.20878 | -51.89865 | 9249 ft | 238 kts | 200° |
| 2026-04-29 15:32 | 64.19301 | -51.91084 | 8914 ft | 240 kts | 200° |
| 2026-04-29 15:32 | 64.17710 | -51.92302 | 8594 ft | 241 kts | 200° |
| 2026-04-29 15:32 | 64.16113 | -51.93527 | 8260 ft | 242 kts | 199° |
| 2026-04-29 15:32 | 64.14518 | -51.94748 | 7937 ft | 242 kts | 199° |
| 2026-04-29 15:33 | 64.12919 | -51.95969 | 7616 ft | 242 kts | 199° |
| 2026-04-29 15:33 | 64.11324 | -51.97188 | 7307 ft | 241 kts | 199° |
| 2026-04-29 15:33 | 64.09733 | -51.98403 | 6993 ft | 241 kts | 199° |
| 2026-04-29 15:33 | 64.08146 | -51.99608 | 6697 ft | 240 kts | 198° |
| 2026-04-29 15:34 | 64.06562 | -52.00815 | 6404 ft | 239 kts | 198° |
| 2026-04-29 15:34 | 64.04975 | -52.01889 | 6047 ft | 236 kts | 187° |
| 2026-04-29 15:34 | 64.03383 | -52.01198 | 5705 ft | 237 kts | 151° |
| 2026-04-29 15:34 | 64.02260 | -51.98514 | 5382 ft | 236 kts | 118° |
| 2026-04-29 15:35 | 64.01656 | -51.95053 | 5074 ft | 235 kts | 108° |
| 2026-04-29 15:35 | 64.01211 | -51.91623 | 4757 ft | 215 kts | 107° |
| 2026-04-29 15:35 | 64.00828 | -51.88461 | 4489 ft | 199 kts | 106° |
| 2026-04-29 15:35 | 64.00513 | -51.85491 | 4184 ft | 192 kts | 101° |
| 2026-04-29 15:36 | 64.00495 | -51.82460 | 3903 ft | 194 kts | 73° |
| 2026-04-29 15:36 | 64.01314 | -51.80220 | 3651 ft | 183 kts | 26° |
| 2026-04-29 15:36 | 64.02482 | -51.79454 | 3428 ft | 176 kts | 15° |
| 2026-04-29 15:36 | 64.03719 | -51.78768 | 3251 ft | 187 kts | 15° |
| 2026-04-29 15:37 | 64.04987 | -51.78084 | 3164 ft | 187 kts | 15° |
| 2026-04-29 15:37 | 64.06219 | -51.77290 | 3015 ft | 175 kts | 20° |
| 2026-04-29 15:37 | 64.07342 | -51.76450 | 3001 ft | 165 kts | 20° |
| 2026-04-29 15:37 | 64.08404 | -51.75634 | 2948 ft | 157 kts | 20° |
| 2026-04-29 15:38 | 64.09396 | -51.74938 | 2904 ft | 138 kts | 18° |
| 2026-04-29 15:38 | 64.10279 | -51.74312 | 2774 ft | 130 kts | 20° |
| 2026-04-29 15:38 | 64.11135 | -51.73704 | 2604 ft | 127 kts | 20° |
| 2026-04-29 15:38 | 64.11947 | -51.73093 | 2460 ft | 123 kts | 21° |
| 2026-04-29 15:39 | 64.12765 | -51.72499 | 2226 ft | 126 kts | 17° |
| 2026-04-29 15:39 | 64.13591 | -51.72036 | 1949 ft | 119 kts | 17° |
| 2026-04-29 15:39 | 64.14374 | -51.71498 | 1620 ft | 120 kts | 21° |
| 2026-04-29 15:39 | 64.15174 | -51.70870 | 1379 ft | 122 kts | 20° |
| 2026-04-29 15:40 | 64.15990 | -51.70224 | 1073 ft | 125 kts | 18° |
| 2026-04-29 15:40 | 64.16808 | -51.69587 | 819 ft | 124 kts | 16° |
| 2026-04-29 15:40 | 64.17629 | -51.68979 | 517 ft | 125 kts | 15° |
| 2026-04-29 15:40 | 64.18457 | -51.68390 | 272 ft | 116 kts | 17° |
| 2026-04-29 15:41 | 64.18919 | -51.68023 | 276 ft | 28 kts | 42° |
| 2026-04-29 15:41 | 64.18970 | -51.67895 | 280 ft | 11 kts | 17° |
| 2026-04-29 15:41 | 64.19039 | -51.67850 | 279 ft | 10 kts | 17° |
| 2026-04-29 15:41 | 64.19085 | -51.67714 | 279 ft | 10 kts | 110° |
| 2026-04-29 15:42 | 64.19061 | -51.67510 | 271 ft | 16 kts | 76° |
| 2026-04-29 15:42 | 64.19101 | -51.67444 | 271 ft | 2 kts | 342° |
| 2026-04-29 15:42 | 64.19114 | -51.67540 | 273 ft | 8 kts | 262° |
| 2026-04-29 15:42 | 64.19113 | -51.67544 | 273 ft | 0 kts | 258° |
| 2026-04-29 15:43 | 64.14820 | -51.71146 | 1514 ft | 121 kts | 20° |
| 2026-04-29 15:44 | 64.15625 | -51.70503 | 1212 ft | 124 kts | 20° |
| 2026-04-29 15:44 | 64.16446 | -51.69866 | 933 ft | 124 kts | 19° |
| 2026-04-29 15:44 | 64.17264 | -51.69247 | 658 ft | 123 kts | 16° |
| 2026-04-29 15:44 | 64.18096 | -51.68652 | 323 ft | 126 kts | 16° |